• Join FlightAware (Why Join?)
  • Login
  • US Flag 
03:31PM EDT


 

Airport Tracker/Info


-or-


 

Live Flight TrackerFlight Track Log ✈ TAM3756 ✈ 11-Jul-2013 ✈ SBRJ / SDU - SBCF / CNF

Flight Track Log - Related Links

Times and Time Zones

All times are in EDT time to prevent confusion due to time zone crossing. See the TAM3756 flight status page for this flight to view local times or setup timezone preferences in your user account.

Time Position Orientation Groundspeed Altitude Reporting Facility
EDT Latitude Longitude Course Direction KTS MPH feet Rate Location/Type
08:10AM -22.1486 -43.3538 347° North  Level Estimated
08:11AM -22.0899 -43.3684 347° North  Level Estimated
08:12AM -22.0313 -43.3830 347° North  Level Estimated
08:13AM -21.9727 -43.3975 347° North  Level Estimated
08:14AM -21.9141 -43.4121 347° North  Level Estimated
08:15AM -21.8554 -43.4266 347° North  Level Estimated
08:16AM -21.7968 -43.4411 347° North  Level Estimated
08:17AM -21.7382 -43.4557 347° North  Level Estimated
08:18AM -21.6796 -43.4701 347° North  Level Estimated
08:19AM -21.6209 -43.4846 347° North  Level Estimated
08:20AM -21.5623 -43.4991 347° North  Level Estimated
08:21AM -21.5037 -43.5136 347° North  Level Estimated
08:22AM -21.4450 -43.5280 347° North  Level Estimated
08:23AM -21.3864 -43.5425 347° North  Level Estimated
08:24AM -21.3278 -43.5569 347° North  Level Estimated
08:25AM -21.2691 -43.5713 347° North  Level Estimated
08:26AM -21.2105 -43.5857 347° North  Level Estimated
08:27AM -21.1519 -43.6001 347° North  Level Estimated
08:28AM -21.0932 -43.6145 347° North  Level Estimated
08:29AM -21.0346 -43.6289 347° North  Level Estimated
08:30AM -20.9760 -43.6432 347° North  Level Estimated
08:31AM -20.9173 -43.6576 347° North  Level Estimated
08:32AM -20.8587 -43.6719 347° North  Level Estimated
08:33AM -20.8000 -43.6862 347° North  Level Estimated
08:34AM -20.7414 -43.7006 347° North  Level Estimated
08:35AM -20.6827 -43.7149 347° North  Level Estimated
08:36AM -20.6241 -43.7292 347° North  Level Estimated
08:37AM -20.5654 -43.7434 347° North  Level Estimated
08:38AM -20.5068 -43.7577 347° North  Level Estimated
08:39AM -20.4481 -43.7720 347° North  Level Estimated
08:40AM -20.3895 -43.7862 347° North  Level Estimated
08:41AM -20.3308 -43.8005 347° North  Level Estimated
08:42AM -20.2722 -43.8147 347° North  Level Estimated
08:43AM -20.2135 -43.8289 347° North  Level Estimated
08:44AM -20.1549 -43.8431 347° North  Level Estimated
08:45AM -20.0962 -43.8573 347° North  Level Estimated
08:46AM -20.0375 -43.8715 347° North  Level Estimated
08:47AM -19.9789 -43.8857 347° North  Level Estimated
08:48AM -19.9202 -43.8998 347° North  Level Estimated
08:49AM -19.8615 -43.9140 347° North  Level Estimated
08:50AM -19.8029 -43.9281 347° North  Level Estimated
08:51AM -19.7442 -43.9423 347° North  Level Estimated
08:52AM -19.6856 -43.9564 347° North  Level Estimated
08:53AM -19.6338 -43.9689 347° North  Level Estimated
08:54AM -19.6338 -43.9689 90° East  Level Estimated
08:55AM -19.6338 -43.9689 90° East  Level Estimated
08:56AM -19.6338 -43.9689 90° East  Level Estimated
08:57AM -19.6338 -43.9689 90° East  Level Estimated
08:58AM -19.6338 -43.9689 90° East  Level Estimated
08:59AM -19.6338 -43.9689 90° East  Level Estimated
09:00AM -19.6338 -43.9689 90° East  Level Estimated
09:01AM -19.6338 -43.9689 90° East  Level Estimated
09:02AM -19.6338 -43.9689 90° East  Level Estimated
09:03AM -19.6338 -43.9689 90° East  Level Estimated
09:04AM -19.6338 -43.9689 90° East  Level Estimated
09:05AM -19.6338 -43.9689 90° East  Level Estimated
09:06AM -19.6338 -43.9689 90° East  Level Estimated
09:07AM -19.6338 -43.9689 90° East  Level Estimated
09:08AM -19.6338 -43.9689 90° East  Level Estimated
09:09AM -19.6338 -43.9689 90° East  Level Estimated